sensor_id;sensor_type;location;lat;lon;timestamp;pressure;altitude;pressure_sealevel;temperature;humidity
17615;BME280;8926;49.720;6.576;2023-02-11T00:00:22;101799.66;;;3.76;77.29
17615;BME280;8926;49.720;6.576;2023-02-11T00:02:47;101799.69;;;3.79;77.16
17615;BME280;8926;49.720;6.576;2023-02-11T00:05:12;101807.44;;;3.81;76.88
17615;BME280;8926;49.720;6.576;2023-02-11T00:07:38;101803.16;;;3.84;77.68
17615;BME280;8926;49.720;6.576;2023-02-11T00:10:04;101801.47;;;3.89;76.40
17615;BME280;8926;49.720;6.576;2023-02-11T00:12:33;101792.84;;;3.89;76.35
17615;BME280;8926;49.720;6.576;2023-02-11T00:14:58;101786.78;;;3.91;76.46
17615;BME280;8926;49.720;6.576;2023-02-11T00:17:23;101794.53;;;3.91;76.92
17615;BME280;8926;49.720;6.576;2023-02-11T00:19:50;101802.31;;;3.90;76.83
17615;BME280;8926;49.720;6.576;2023-02-11T00:22:15;101796.28;;;3.89;77.70
17615;BME280;8926;49.720;6.576;2023-02-11T00:24:41;101801.44;;;3.92;77.79
17615;BME280;8926;49.720;6.576;2023-02-11T00:27:06;101789.38;;;3.93;77.17
17615;BME280;8926;49.720;6.576;2023-02-11T00:29:31;101792.84;;;3.96;76.80
17615;BME280;8926;49.720;6.576;2023-02-11T00:31:57;101791.13;;;4.01;76.39
17615;BME280;8926;49.720;6.576;2023-02-11T00:34:22;101786.84;;;4.06;77.21
17615;BME280;8926;49.720;6.576;2023-02-11T00:36:47;101795.47;;;4.08;76.75
17615;BME280;8926;49.720;6.576;2023-02-11T00:39:14;101793.75;;;4.09;76.44
17615;BME280;8926;49.720;6.576;2023-02-11T00:41:39;101789.47;;;4.13;76.30
17615;BME280;8926;49.720;6.576;2023-02-11T00:44:05;101779.13;;;4.16;76.18
17615;BME280;8926;49.720;6.576;2023-02-11T00:46:30;101792.03;;;4.19;75.49
17615;BME280;8926;49.720;6.576;2023-02-11T00:48:55;101792.06;;;4.25;75.35
17615;BME280;8926;49.720;6.576;2023-02-11T00:51:23;101787.75;;;4.27;75.10
17615;BME280;8926;49.720;6.576;2023-02-11T00:53:48;101795.53;;;4.30;74.73
17615;BME280;8926;49.720;6.576;2023-02-11T00:56:13;101797.25;;;4.32;75.52
17615;BME280;8926;49.720;6.576;2023-02-11T00:58:39;101789.50;;;4.34;74.47
17615;BME280;8926;49.720;6.576;2023-02-11T01:01:04;101802.44;;;4.34;75.31
17615;BME280;8926;49.720;6.576;2023-02-11T01:03:29;101788.63;;;4.35;75.38
17615;BME280;8926;49.720;6.576;2023-02-11T01:05:55;101790.38;;;4.36;74.64
17615;BME280;8926;49.720;6.576;2023-02-11T01:08:20;101786.06;;;4.35;75.31
17615;BME280;8926;49.720;6.576;2023-02-11T01:10:53;101784.31;;;4.31;74.81
17615;BME280;8926;49.720;6.576;2023-02-11T01:13:18;101787.75;;;4.30;74.42
17615;BME280;8926;49.720;6.576;2023-02-11T01:15:44;101775.69;;;4.32;74.66
17615;BME280;8926;49.720;6.576;2023-02-11T01:18:11;101782.59;;;4.30;74.98
17615;BME280;8926;49.720;6.576;2023-02-11T01:20:36;101791.22;;;4.32;74.33
17615;BME280;8926;49.720;6.576;2023-02-11T01:23:01;101791.22;;;4.35;75.49
17615;BME280;8926;49.720;6.576;2023-02-11T01:25:27;101780.88;;;4.35;74.33
17615;BME280;8926;49.720;6.576;2023-02-11T01:27:52;101776.56;;;4.34;74.81
17615;BME280;8926;49.720;6.576;2023-02-11T01:30:17;101776.56;;;4.32;74.71
17615;BME280;8926;49.720;6.576;2023-02-11T01:32:42;101765.34;;;4.29;74.77
17615;BME280;8926;49.720;6.576;2023-02-11T01:35:08;101760.16;;;4.30;74.19
17615;BME280;8926;49.720;6.576;2023-02-11T01:37:33;101755.84;;;4.28;74.48
17615;BME280;8926;49.720;6.576;2023-02-11T01:40:01;101748.09;;;4.25;74.54
17615;BME280;8926;49.720;6.576;2023-02-11T01:42:27;101753.25;;;4.25;74.46
17615;BME280;8926;49.720;6.576;2023-02-11T01:44:55;101753.25;;;4.25;74.92
17615;BME280;8926;49.720;6.576;2023-02-11T01:47:21;101759.28;;;4.25;74.12
17615;BME280;8926;49.720;6.576;2023-02-11T01:49:49;101760.16;;;4.23;74.39
17615;BME280;8926;49.720;6.576;2023-02-11T01:52:21;101757.56;;;4.20;74.24
17615;BME280;8926;49.720;6.576;2023-02-11T01:54:53;101758.41;;;4.19;75.60
17615;BME280;8926;49.720;6.576;2023-02-11T01:57:40;101737.72;;;4.19;74.51
17615;BME280;8926;49.720;6.576;2023-02-11T02:00:16;101743.75;;;4.21;74.41
17615;BME280;8926;49.720;6.576;2023-02-11T02:07:53;101730.81;;;4.16;75.08
17615;BME280;8926;49.720;6.576;2023-02-11T02:10:22;101729.13;;;4.14;74.86
17615;BME280;8926;49.720;6.576;2023-02-11T02:12:48;101730.84;;;4.13;74.67
17615;BME280;8926;49.720;6.576;2023-02-11T02:17:57;101729.09;;;4.04;74.14
17615;BME280;8926;49.720;6.576;2023-02-11T02:20:29;101725.63;;;4.02;74.53
17615;BME280;8926;49.720;6.576;2023-02-11T02:34:48;101711.84;;;3.88;76.09
17615;BME280;8926;49.720;6.576;2023-02-11T02:40:10;101721.28;;;3.82;75.40
17615;BME280;8926;49.720;6.576;2023-02-11T02:42:39;101712.66;;;3.81;76.09
17615;BME280;8926;49.720;6.576;2023-02-11T02:45:06;101714.38;;;3.79;75.57
17615;BME280;8926;49.720;6.576;2023-02-11T02:47:32;101721.28;;;3.79;75.39
17615;BME280;8926;49.720;6.576;2023-02-11T02:49:57;101720.44;;;3.81;75.88
17615;BME280;8926;49.720;6.576;2023-02-11T02:56:01;101726.47;;;3.86;75.41
17615;BME280;8926;49.720;6.576;2023-02-11T02:58:52;101731.59;;;3.74;76.20
17615;BME280;8926;49.720;6.576;2023-02-11T03:04:56;101737.56;;;3.64;76.12
17615;BME280;8926;49.720;6.576;2023-02-11T03:07:40;101730.69;;;3.57;77.09
17615;BME280;8926;49.720;6.576;2023-02-11T03:10:13;101744.44;;;3.50;77.53
17615;BME280;8926;49.720;6.576;2023-02-11T03:12:42;101741.84;;;3.53;77.20
17615;BME280;8926;49.720;6.576;2023-02-11T03:15:10;101732.41;;;3.58;76.55
17615;BME280;8926;49.720;6.576;2023-02-11T03:17:38;101729.84;;;3.61;77.50
17615;BME280;8926;49.720;6.576;2023-02-11T03:20:05;101729.00;;;3.63;77.25
17615;BME280;8926;49.720;6.576;2023-02-11T03:25:49;101722.97;;;3.69;77.99
17615;BME280;8926;49.720;6.576;2023-02-11T03:28:30;101730.72;;;3.72;77.96
17615;BME280;8926;49.720;6.576;2023-02-11T03:36:25;101716.97;;;3.82;77.79
17615;BME280;8926;49.720;6.576;2023-02-11T03:38:55;101718.72;;;3.83;77.32
17615;BME280;8926;49.720;6.576;2023-02-11T03:41:23;101717.84;;;3.83;77.43
17615;BME280;8926;49.720;6.576;2023-02-11T03:43:52;101713.53;;;3.83;77.18
17615;BME280;8926;49.720;6.576;2023-02-11T03:46:23;101705.78;;;3.85;76.87
17615;BME280;8926;49.720;6.576;2023-02-11T03:48:55;101699.75;;;3.87;77.45
17615;BME280;8926;49.720;6.576;2023-02-11T03:51:22;101692.84;;;3.92;77.39
17615;BME280;8926;49.720;6.576;2023-02-11T03:53:52;101692.88;;;3.95;76.88
17615;BME280;8926;49.720;6.576;2023-02-11T03:56:20;101700.63;;;3.97;76.71
17615;BME280;8926;49.720;6.576;2023-02-11T03:58:48;101700.63;;;3.95;76.24
17615;BME280;8926;49.720;6.576;2023-02-11T04:01:14;101701.47;;;3.91;76.14
17615;BME280;8926;49.720;6.576;2023-02-11T04:03:39;101705.78;;;3.85;77.49
17615;BME280;8926;49.720;6.576;2023-02-11T04:06:05;101702.31;;;3.78;78.05
17615;BME280;8926;49.720;6.576;2023-02-11T04:08:30;101684.22;;;3.75;77.21
17615;BME280;8926;49.720;6.576;2023-02-11T04:10:57;101694.53;;;3.73;77.97
17615;BME280;8926;49.720;6.576;2023-02-11T04:13:22;101690.25;;;3.77;77.64
17615;BME280;8926;49.720;6.576;2023-02-11T04:15:47;101681.66;;;3.80;76.89
17615;BME280;8926;49.720;6.576;2023-02-11T04:18:12;101679.91;;;3.77;77.16
17615;BME280;8926;49.720;6.576;2023-02-11T04:20:38;101675.59;;;3.76;77.51
17615;BME280;8926;49.720;6.576;2023-02-11T04:23:03;101678.19;;;3.76;77.65
17615;BME280;8926;49.720;6.576;2023-02-11T04:25:29;101686.78;;;3.75;77.81
17615;BME280;8926;49.720;6.576;2023-02-11T04:27:54;101685.06;;;3.74;78.02
17615;BME280;8926;49.720;6.576;2023-02-11T04:30:19;101676.47;;;3.75;78.24
17615;BME280;8926;49.720;6.576;2023-02-11T04:32:45;101667.84;;;3.78;77.33
17615;BME280;8926;49.720;6.576;2023-02-11T04:35:10;101658.38;;;3.78;77.77
17615;BME280;8926;49.720;6.576;2023-02-11T04:37:35;101658.38;;;3.78;77.51
17615;BME280;8926;49.720;6.576;2023-02-11T04:40:01;101647.16;;;3.73;77.08
17615;BME280;8926;49.720;6.576;2023-02-11T04:42:26;101653.19;;;3.67;77.58
17615;BME280;8926;49.720;6.576;2023-02-11T04:44:51;101652.31;;;3.65;77.74
17615;BME280;8926;49.720;6.576;2023-02-11T04:47:17;101665.25;;;3.61;77.85
17615;BME280;8926;49.720;6.576;2023-02-11T04:49:42;101661.78;;;3.57;77.28
17615;BME280;8926;49.720;6.576;2023-02-11T04:52:07;101672.13;;;3.56;77.34
17615;BME280;8926;49.720;6.576;2023-02-11T04:54:33;101669.53;;;3.57;77.00
17615;BME280;8926;49.720;6.576;2023-02-11T04:56:59;101673.88;;;3.63;76.99
17615;BME280;8926;49.720;6.576;2023-02-11T04:59:24;101672.13;;;3.66;77.43
17615;BME280;8926;49.720;6.576;2023-02-11T05:01:49;101683.34;;;3.71;76.10
17615;BME280;8926;49.720;6.576;2023-02-11T05:04:15;101682.47;;;3.72;76.13
17615;BME280;8926;49.720;6.576;2023-02-11T05:06:40;101687.66;;;3.74;76.77
17615;BME280;8926;49.720;6.576;2023-02-11T05:09:06;101685.06;;;3.72;76.15
17615;BME280;8926;49.720;6.576;2023-02-11T05:11:31;101683.34;;;3.70;76.14
17615;BME280;8926;49.720;6.576;2023-02-11T05:13:56;101687.66;;;3.71;77.07
17615;BME280;8926;49.720;6.576;2023-02-11T05:16:22;101683.34;;;3.70;76.57
17615;BME280;8926;49.720;6.576;2023-02-11T05:18:47;101689.34;;;3.66;76.74
17615;BME280;8926;49.720;6.576;2023-02-11T05:21:16;101693.66;;;3.64;76.18
17615;BME280;8926;49.720;6.576;2023-02-11T05:23:43;101689.38;;;3.63;76.44
17615;BME280;8926;49.720;6.576;2023-02-11T05:26:09;101700.53;;;3.65;77.08
17615;BME280;8926;49.720;6.576;2023-02-11T05:28:35;101694.53;;;3.66;76.91
17615;BME280;8926;49.720;6.576;2023-02-11T05:31:00;101694.53;;;3.69;76.53
17615;BME280;8926;49.720;6.576;2023-02-11T05:33:26;101684.19;;;3.69;77.08
17615;BME280;8926;49.720;6.576;2023-02-11T05:36:00;101689.38;;;3.73;76.81
17615;BME280;8926;49.720;6.576;2023-02-11T05:38:26;101679.03;;;3.75;76.61
17615;BME280;8926;49.720;6.576;2023-02-11T05:40:51;101685.94;;;3.79;76.08
17615;BME280;8926;49.720;6.576;2023-02-11T05:43:17;101683.38;;;3.82;76.03
17615;BME280;8926;49.720;6.576;2023-02-11T05:45:42;101692.88;;;3.88;76.34
17615;BME280;8926;49.720;6.576;2023-02-11T05:48:07;101696.31;;;3.91;76.51
17615;BME280;8926;49.720;6.576;2023-02-11T05:50:32;101701.47;;;3.94;76.49
17615;BME280;8926;49.720;6.576;2023-02-11T05:52:58;101698.03;;;3.92;75.78
17615;BME280;8926;49.720;6.576;2023-02-11T05:55:23;101697.19;;;3.89;75.49
17615;BME280;8926;49.720;6.576;2023-02-11T05:57:48;101685.09;;;3.82;75.81
17615;BME280;8926;49.720;6.576;2023-02-11T06:00:15;101695.44;;;3.79;76.67
17615;BME280;8926;49.720;6.576;2023-02-11T06:02:40;101704.91;;;3.80;75.59
17615;BME280;8926;49.720;6.576;2023-02-11T06:05:06;101701.47;;;3.79;75.85
17615;BME280;8926;49.720;6.576;2023-02-11T06:07:32;101694.56;;;3.78;76.52
17615;BME280;8926;49.720;6.576;2023-02-11T06:09:57;101685.09;;;3.83;76.51
17615;BME280;8926;49.720;6.576;2023-02-11T06:12:23;101684.25;;;3.84;76.19
17615;BME280;8926;49.720;6.576;2023-02-11T06:14:48;101678.22;;;3.90;75.77
17615;BME280;8926;49.720;6.576;2023-02-11T06:17:14;101686.81;;;3.93;75.75
17615;BME280;8926;49.720;6.576;2023-02-11T06:19:39;101690.28;;;3.98;75.84
17615;BME280;8926;49.720;6.576;2023-02-11T06:22:04;101686.84;;;4.01;75.43
17615;BME280;8926;49.720;6.576;2023-02-11T06:24:30;101684.25;;;4.02;76.53
17615;BME280;8926;49.720;6.576;2023-02-11T06:26:55;101679.09;;;4.08;75.20
17615;BME280;8926;49.720;6.576;2023-02-11T06:29:20;101672.22;;;4.12;75.45
17615;BME280;8926;49.720;6.576;2023-02-11T06:31:45;101686.00;;;4.16;75.34
17615;BME280;8926;49.720;6.576;2023-02-11T06:34:11;101692.88;;;4.20;75.28
17615;BME280;8926;49.720;6.576;2023-02-11T06:36:39;101684.28;;;4.21;74.28
17615;BME280;8926;49.720;6.576;2023-02-11T06:39:05;101686.84;;;4.22;73.87
17615;BME280;8926;49.720;6.576;2023-02-11T06:41:31;101686.00;;;4.23;74.27
17615;BME280;8926;49.720;6.576;2023-02-11T06:43:56;101690.31;;;4.24;74.55
17615;BME280;8926;49.720;6.576;2023-02-11T06:46:22;101687.72;;;4.26;74.21
17615;BME280;8926;49.720;6.576;2023-02-11T06:48:47;101698.06;;;4.29;74.94
17615;BME280;8926;49.720;6.576;2023-02-11T06:51:13;101698.06;;;4.29;73.79
17615;BME280;8926;49.720;6.576;2023-02-11T06:53:43;101702.38;;;4.28;73.91
17615;BME280;8926;49.720;6.576;2023-02-11T06:56:12;101698.94;;;4.26;74.36
17615;BME280;8926;49.720;6.576;2023-02-11T06:58:38;101699.81;;;4.27;74.36
17615;BME280;8926;49.720;6.576;2023-02-11T07:01:05;101694.63;;;4.30;74.89
17615;BME280;8926;49.720;6.576;2023-02-11T07:03:35;101696.34;;;4.34;73.86
17615;BME280;8926;49.720;6.576;2023-02-11T07:06:06;101694.63;;;4.33;74.08
17615;BME280;8926;49.720;6.576;2023-02-11T07:08:32;101695.50;;;4.35;72.98
17615;BME280;8926;49.720;6.576;2023-02-11T07:10:58;101704.13;;;4.38;74.01
17615;BME280;8926;49.720;6.576;2023-02-11T07:13:24;101704.97;;;4.42;73.85
17615;BME280;8926;49.720;6.576;2023-02-11T07:15:49;101704.13;;;4.41;73.65
17615;BME280;8926;49.720;6.576;2023-02-11T07:18:15;101713.63;;;4.41;72.79
17615;BME280;8926;49.720;6.576;2023-02-11T07:20:41;101711.03;;;4.41;73.69
17615;BME280;8926;49.720;6.576;2023-02-11T07:23:07;101715.34;;;4.39;72.91
17615;BME280;8926;49.720;6.576;2023-02-11T07:25:32;101706.72;;;4.40;72.68
17615;BME280;8926;49.720;6.576;2023-02-11T07:27:57;101705.00;;;4.39;73.18
17615;BME280;8926;49.720;6.576;2023-02-11T07:30:23;101713.63;;;4.41;72.82
17615;BME280;8926;49.720;6.576;2023-02-11T07:32:48;101717.94;;;4.40;73.13
17615;BME280;8926;49.720;6.576;2023-02-11T07:35:14;101716.22;;;4.41;72.00
17615;BME280;8926;49.720;6.576;2023-02-11T07:37:39;101720.50;;;4.39;73.01
17615;BME280;8926;49.720;6.576;2023-02-11T07:40:07;101715.34;;;4.36;72.75
17615;BME280;8926;49.720;6.576;2023-02-11T07:42:33;101709.28;;;4.32;73.31
17615;BME280;8926;49.720;6.576;2023-02-11T07:44:59;101711.88;;;4.28;73.34
17615;BME280;8926;49.720;6.576;2023-02-11T07:47:24;101716.19;;;4.27;73.61
17615;BME280;8926;49.720;6.576;2023-02-11T07:49:49;101706.69;;;4.22;73.96
17615;BME280;8926;49.720;6.576;2023-02-11T07:52:15;101712.75;;;4.30;73.91
17615;BME280;8926;49.720;6.576;2023-02-11T07:54:40;101709.28;;;4.23;73.42
17615;BME280;8926;49.720;6.576;2023-02-11T07:57:05;101717.03;;;4.22;74.09
17615;BME280;8926;49.720;6.576;2023-02-11T07:59:31;101723.94;;;4.23;73.86
17615;BME280;8926;49.720;6.576;2023-02-11T08:01:56;101727.38;;;4.25;74.04
17615;BME280;8926;49.720;6.576;2023-02-11T08:04:21;101725.66;;;4.27;73.84
17615;BME280;8926;49.720;6.576;2023-02-11T08:06:47;101725.66;;;4.24;74.17
17615;BME280;8926;49.720;6.576;2023-02-11T08:09:15;101732.56;;;4.25;73.94
17615;BME280;8926;49.720;6.576;2023-02-11T08:11:43;101739.47;;;4.26;76.01
17615;BME280;8926;49.720;6.576;2023-02-11T08:14:09;101745.50;;;4.29;74.93
17615;BME280;8926;49.720;6.576;2023-02-11T08:16:36;101746.38;;;4.36;74.27
17615;BME280;8926;49.720;6.576;2023-02-11T08:19:05;101749.81;;;4.32;75.17
17615;BME280;8926;49.720;6.576;2023-02-11T08:21:30;101739.47;;;4.36;73.82
17615;BME280;8926;49.720;6.576;2023-02-11T08:23:56;101736.91;;;4.33;74.58
17615;BME280;8926;49.720;6.576;2023-02-11T08:26:24;101746.38;;;4.39;74.23
17615;BME280;8926;49.720;6.576;2023-02-11T08:28:51;101745.50;;;4.43;74.65
17615;BME280;8926;49.720;6.576;2023-02-11T08:31:19;101743.78;;;4.47;74.20
17615;BME280;8926;49.720;6.576;2023-02-11T08:33:45;101755.00;;;4.47;75.25
17615;BME280;8926;49.720;6.576;2023-02-11T08:36:18;101749.81;;;4.50;74.75
17615;BME280;8926;49.720;6.576;2023-02-11T08:38:45;101756.75;;;4.60;74.44
17615;BME280;8926;49.720;6.576;2023-02-11T08:41:11;101755.88;;;4.63;74.59
17615;BME280;8926;49.720;6.576;2023-02-11T08:43:39;101761.06;;;4.64;73.91
17615;BME280;8926;49.720;6.576;2023-02-11T08:46:09;101760.19;;;4.71;73.75
17615;BME280;8926;49.720;6.576;2023-02-11T08:48:35;101752.41;;;4.71;73.39
17615;BME280;8926;49.720;6.576;2023-02-11T08:51:09;101755.00;;;4.74;73.71
17615;BME280;8926;49.720;6.576;2023-02-11T08:53:35;101760.19;;;4.77;73.16
17615;BME280;8926;49.720;6.576;2023-02-11T08:56:01;101758.44;;;4.76;74.36
17615;BME280;8926;49.720;6.576;2023-02-11T08:58:27;101759.31;;;4.77;73.16
17615;BME280;8926;49.720;6.576;2023-02-11T09:00:52;101760.19;;;4.77;73.25
17615;BME280;8926;49.720;6.576;2023-02-11T09:03:17;101758.44;;;4.76;73.21
17615;BME280;8926;49.720;6.576;2023-02-11T09:05:48;101748.09;;;4.83;73.77
17615;BME280;8926;49.720;6.576;2023-02-11T09:08:14;101756.72;;;4.85;73.31
17615;BME280;8926;49.720;6.576;2023-02-11T09:10:40;101758.47;;;4.89;73.58
17615;BME280;8926;49.720;6.576;2023-02-11T09:13:05;101760.19;;;4.87;74.12
17615;BME280;8926;49.720;6.576;2023-02-11T09:15:32;101763.63;;;4.89;74.30
17615;BME280;8926;49.720;6.576;2023-02-11T09:17:57;101762.78;;;4.90;74.94
17615;BME280;8926;49.720;6.576;2023-02-11T09:20:23;101761.88;;;4.94;74.34
17615;BME280;8926;49.720;6.576;2023-02-11T09:22:49;101761.88;;;5.00;73.63
17615;BME280;8926;49.720;6.576;2023-02-11T09:25:14;101765.31;;;4.96;74.67
17615;BME280;8926;49.720;6.576;2023-02-11T09:27:39;101760.16;;;4.99;74.82
17615;BME280;8926;49.720;6.576;2023-02-11T09:30:05;101758.41;;;4.98;75.57
17615;BME280;8926;49.720;6.576;2023-02-11T09:32:31;101762.75;;;4.99;74.34
17615;BME280;8926;49.720;6.576;2023-02-11T09:34:56;101758.41;;;5.04;75.36
17615;BME280;8926;49.720;6.576;2023-02-11T09:37:21;101754.06;;;5.24;75.86
17615;BME280;8926;49.720;6.576;2023-02-11T09:39:46;101762.69;;;5.34;74.95
17615;BME280;8926;49.720;6.576;2023-02-11T09:45:04;101771.31;;;5.39;76.05
17615;BME280;8926;49.720;6.576;2023-02-11T09:47:47;101779.06;;;5.43;75.57
17615;BME280;8926;49.720;6.576;2023-02-11T09:50:18;101787.66;;;5.49;75.33
17615;BME280;8926;49.720;6.576;2023-02-11T09:52:52;101781.59;;;5.54;75.95
17615;BME280;8926;49.720;6.576;2023-02-11T09:55:22;101785.91;;;5.63;75.81
17615;BME280;8926;49.720;6.576;2023-02-11T09:57:49;101794.53;;;5.71;75.34
17615;BME280;8926;49.720;6.576;2023-02-11T10:00:25;101797.16;;;5.62;76.06
17615;BME280;8926;49.720;6.576;2023-02-11T10:03:13;101791.09;;;5.63;75.51
17615;BME280;8926;49.720;6.576;2023-02-11T10:11:05;101802.41;;;5.43;75.68
17615;BME280;8926;49.720;6.576;2023-02-11T10:13:46;101804.13;;;5.44;75.76
17615;BME280;8926;49.720;6.576;2023-02-11T10:19:15;101807.59;;;5.43;75.64
17615;BME280;8926;49.720;6.576;2023-02-11T10:22:46;101812.78;;;5.37;75.32
17615;BME280;8926;49.720;6.576;2023-02-11T10:24:41;101805.00;;;5.34;76.13
17615;BME280;8926;49.720;6.576;2023-02-11T10:27:19;101805.00;;;5.34;76.79
17615;BME280;8926;49.720;6.576;2023-02-11T10:29:51;101805.00;;;5.34;76.23
17615;BME280;8926;49.720;6.576;2023-02-11T10:35:17;101810.19;;;5.43;76.39
17615;BME280;8926;49.720;6.576;2023-02-11T10:37:43;101803.25;;;5.42;76.38
17615;BME280;8926;49.720;6.576;2023-02-11T10:40:17;101792.88;;;5.45;76.54
17615;BME280;8926;49.720;6.576;2023-02-11T10:42:47;101792.88;;;5.45;76.85
17615;BME280;8926;49.720;6.576;2023-02-11T10:47:54;101794.59;;;5.46;76.98
17615;BME280;8926;49.720;6.576;2023-02-11T10:50:30;101788.53;;;5.52;76.83
17615;BME280;8926;49.720;6.576;2023-02-11T10:53:18;101781.63;;;5.48;76.21
17615;BME280;8926;49.720;6.576;2023-02-11T10:55:50;101772.97;;;5.46;76.68
17615;BME280;8926;49.720;6.576;2023-02-11T10:58:31;101773.88;;;5.43;77.16
17615;BME280;8926;49.720;6.576;2023-02-11T11:00:59;101774.75;;;5.45;76.36
17615;BME280;8926;49.720;6.576;2023-02-11T11:03:28;101769.53;;;5.50;77.33
17615;BME280;8926;49.720;6.576;2023-02-11T11:06:00;101770.38;;;5.57;76.58
17615;BME280;8926;49.720;6.576;2023-02-11T11:11:06;101777.19;;;5.74;77.03
17615;BME280;8926;49.720;6.576;2023-02-11T11:19:13;101771.94;;;5.99;75.44
17615;BME280;8926;49.720;6.576;2023-02-11T11:21:45;101776.22;;;6.06;75.48
17615;BME280;8926;49.720;6.576;2023-02-11T11:24:19;101775.31;;;6.11;75.31
17615;BME280;8926;49.720;6.576;2023-02-11T11:26:48;101782.25;;;6.09;75.52
17615;BME280;8926;49.720;6.576;2023-02-11T11:29:33;101779.66;;;6.12;75.45
17615;BME280;8926;49.720;6.576;2023-02-11T11:32:01;101781.38;;;6.13;75.02
17615;BME280;8926;49.720;6.576;2023-02-11T11:34:34;101777.91;;;6.13;75.21
17615;BME280;8926;49.720;6.576;2023-02-11T11:37:17;101783.97;;;6.13;75.39
17615;BME280;8926;49.720;6.576;2023-02-11T11:39:50;101783.97;;;6.10;75.72
17615;BME280;8926;49.720;6.576;2023-02-11T11:42:30;101792.59;;;6.16;75.81
17615;BME280;8926;49.720;6.576;2023-02-11T11:45:01;101782.16;;;6.25;75.24
17615;BME280;8926;49.720;6.576;2023-02-11T11:47:50;101773.47;;;6.30;75.95
17615;BME280;8926;49.720;6.576;2023-02-11T11:50:34;101768.25;;;6.35;75.36
17615;BME280;8926;49.720;6.576;2023-02-11T11:53:04;101768.25;;;6.38;74.87
17615;BME280;8926;49.720;6.576;2023-02-11T11:55:35;101767.34;;;6.42;74.00
17615;BME280;8926;49.720;6.576;2023-02-11T11:58:04;101757.84;;;6.41;75.29
17615;BME280;8926;49.720;6.576;2023-02-11T12:00:41;101756.06;;;6.47;75.08
17615;BME280;8926;49.720;6.576;2023-02-11T12:06:20;101762.84;;;6.65;74.69
17615;BME280;8926;49.720;6.576;2023-02-11T12:14:18;101745.53;;;6.64;74.27
17615;BME280;8926;49.720;6.576;2023-02-11T12:17:13;101742.00;;;6.71;74.10
17615;BME280;8926;49.720;6.576;2023-02-11T12:27:44;101740.34;;;6.64;75.08
17615;BME280;8926;49.720;6.576;2023-02-11T12:38:26;101722.00;;;6.81;75.29
17615;BME280;8926;49.720;6.576;2023-02-11T12:41:18;101729.78;;;6.79;74.44
17615;BME280;8926;49.720;6.576;2023-02-11T12:44:15;101725.47;;;6.80;75.33
17615;BME280;8926;49.720;6.576;2023-02-11T12:46:55;101728.00;;;6.88;74.88
17615;BME280;8926;49.720;6.576;2023-02-11T12:49:29;101728.88;;;6.87;74.90
17615;BME280;8926;49.720;6.576;2023-02-11T12:54:50;101732.34;;;6.86;75.36
17615;BME280;8926;49.720;6.576;2023-02-11T12:57:25;101730.56;;;6.91;74.78
17615;BME280;8926;49.720;6.576;2023-02-11T13:00:03;101719.41;;;6.79;75.74
17615;BME280;8926;49.720;6.576;2023-02-11T13:03:05;101722.84;;;6.81;75.97
17615;BME280;8926;49.720;6.576;2023-02-11T13:05:50;101727.13;;;6.89;75.61
17615;BME280;8926;49.720;6.576;2023-02-11T13:08:21;101719.28;;;6.95;75.34
17615;BME280;8926;49.720;6.576;2023-02-11T13:10:53;101719.25;;;6.98;75.86
17615;BME280;8926;49.720;6.576;2023-02-11T13:13:26;101719.25;;;6.98;75.45
17615;BME280;8926;49.720;6.576;2023-02-11T13:16:00;101720.91;;;7.02;75.16
17615;BME280;8926;49.720;6.576;2023-02-11T13:18:54;101712.31;;;6.97;75.85
17615;BME280;8926;49.720;6.576;2023-02-11T13:21:31;101708.03;;;6.94;76.09
17615;BME280;8926;49.720;6.576;2023-02-11T13:24:21;101710.50;;;7.02;76.25
17615;BME280;8926;49.720;6.576;2023-02-11T13:32:24;101705.22;;;7.11;75.59
17615;BME280;8926;49.720;6.576;2023-02-11T13:34:54;101713.91;;;7.10;75.79
17615;BME280;8926;49.720;6.576;2023-02-11T13:37:37;101705.22;;;7.11;75.85
17615;BME280;8926;49.720;6.576;2023-02-11T13:42:33;101709.47;;;7.20;75.47
17615;BME280;8926;49.720;6.576;2023-02-11T13:48:03;101690.34;;;7.27;75.60
17615;BME280;8926;49.720;6.576;2023-02-11T13:50:32;101704.19;;;7.27;75.62
17615;BME280;8926;49.720;6.576;2023-02-11T13:53:02;101693.84;;;7.24;75.74
17615;BME280;8926;49.720;6.576;2023-02-11T13:55:28;101703.34;;;7.25;75.93
17615;BME280;8926;49.720;6.576;2023-02-11T14:19:45;101701.47;;;7.36;76.11
17615;BME280;8926;49.720;6.576;2023-02-11T14:22:30;101698.94;;;7.30;76.30
17615;BME280;8926;49.720;6.576;2023-02-11T14:25:15;101690.25;;;7.31;76.44
17615;BME280;8926;49.720;6.576;2023-02-11T14:28:14;101693.75;;;7.29;76.19
17615;BME280;8926;49.720;6.576;2023-02-11T14:30:54;101680.81;;;7.27;76.91
17615;BME280;8926;49.720;6.576;2023-02-11T14:39:00;101687.84;;;7.16;77.10
17615;BME280;8926;49.720;6.576;2023-02-11T14:41:43;101678.31;;;7.18;76.84
17615;BME280;8926;49.720;6.576;2023-02-11T14:44:17;101677.50;;;7.13;77.38
17615;BME280;8926;49.720;6.576;2023-02-11T14:46:47;101678.34;;;7.15;77.77
17615;BME280;8926;49.720;6.576;2023-02-11T14:49:24;101682.63;;;7.19;77.58
17615;BME280;8926;49.720;6.576;2023-02-11T14:51:53;101684.34;;;7.22;77.56
17615;BME280;8926;49.720;6.576;2023-02-11T14:54:23;101679.13;;;7.23;77.46
17615;BME280;8926;49.720;6.576;2023-02-11T14:57:12;101688.63;;;7.26;77.74
17615;BME280;8926;49.720;6.576;2023-02-11T14:59:39;101695.50;;;7.28;76.75
17615;BME280;8926;49.720;6.576;2023-02-11T15:02:26;101693.88;;;7.21;77.31
17615;BME280;8926;49.720;6.576;2023-02-11T15:04:52;101696.47;;;7.21;77.13
17615;BME280;8926;49.720;6.576;2023-02-11T15:07:19;101698.22;;;7.19;77.33
17615;BME280;8926;49.720;6.576;2023-02-11T15:09:47;101691.28;;;7.18;77.49
17615;BME280;8926;49.720;6.576;2023-02-11T15:12:19;101699.97;;;7.17;77.85
17615;BME280;8926;49.720;6.576;2023-02-11T15:14:49;101701.69;;;7.18;77.66
17615;BME280;8926;49.720;6.576;2023-02-11T15:17:19;101701.69;;;7.18;77.18
17615;BME280;8926;49.720;6.576;2023-02-11T15:19:49;101691.28;;;7.18;78.45
17615;BME280;8926;49.720;6.576;2023-02-11T15:22:23;101695.56;;;7.24;77.70
17615;BME280;8926;49.720;6.576;2023-02-11T15:24:58;101694.81;;;7.14;77.66
17615;BME280;8926;49.720;6.576;2023-02-11T15:27:24;101687.91;;;7.10;77.94
17615;BME280;8926;49.720;6.576;2023-02-11T15:29:50;101691.44;;;7.03;78.29